sensor_id;sensor_type;location;lat;lon;timestamp;P1;durP1;ratioP1;P2;durP2;ratioP2
56122;SDS011;42426;46.104;19.656;2022-10-16T00:02:07;14.80;;;10.10;;
56122;SDS011;42426;46.104;19.656;2022-10-16T00:04:32;12.90;;;9.48;;
56122;SDS011;42426;46.104;19.656;2022-10-16T00:06:58;15.95;;;9.60;;
56122;SDS011;42426;46.104;19.656;2022-10-16T00:09:25;12.05;;;9.27;;
56122;SDS011;42426;46.104;19.656;2022-10-16T00:11:51;11.85;;;8.70;;
56122;SDS011;42426;46.104;19.656;2022-10-16T00:14:19;14.65;;;10.52;;
56122;SDS011;42426;46.104;19.656;2022-10-16T00:16:44;14.13;;;10.00;;
56122;SDS011;42426;46.104;19.656;2022-10-16T00:19:11;12.85;;;9.80;;
56122;SDS011;42426;46.104;19.656;2022-10-16T00:21:40;14.95;;;10.55;;
56122;SDS011;42426;46.104;19.656;2022-10-16T00:24:07;11.65;;;9.35;;
56122;SDS011;42426;46.104;19.656;2022-10-16T00:26:37;14.20;;;9.10;;
56122;SDS011;42426;46.104;19.656;2022-10-16T00:29:04;14.15;;;9.32;;
56122;SDS011;42426;46.104;19.656;2022-10-16T00:31:31;12.40;;;9.60;;
56122;SDS011;42426;46.104;19.656;2022-10-16T00:33:57;15.02;;;9.95;;
56122;SDS011;42426;46.104;19.656;2022-10-16T00:36:24;14.20;;;10.48;;
56122;SDS011;42426;46.104;19.656;2022-10-16T00:38:51;13.80;;;9.07;;
56122;SDS011;42426;46.104;19.656;2022-10-16T00:41:23;16.17;;;9.77;;
56122;SDS011;42426;46.104;19.656;2022-10-16T00:46:22;19.05;;;11.20;;
56122;SDS011;42426;46.104;19.656;2022-10-16T00:51:35;15.60;;;9.90;;
56122;SDS011;42426;46.104;19.656;2022-10-16T00:56:48;18.75;;;11.32;;
56122;SDS011;42426;46.104;19.656;2022-10-16T00:59:16;14.52;;;9.75;;
56122;SDS011;42426;46.104;19.656;2022-10-16T01:01:47;16.42;;;10.18;;
56122;SDS011;42426;46.104;19.656;2022-10-16T01:04:13;12.45;;;9.82;;
56122;SDS011;42426;46.104;19.656;2022-10-16T01:06:43;17.10;;;10.32;;
56122;SDS011;42426;46.104;19.656;2022-10-16T01:09:21;16.50;;;11.13;;
56122;SDS011;42426;46.104;19.656;2022-10-16T01:12:50;16.00;;;11.20;;
56122;SDS011;42426;46.104;19.656;2022-10-16T01:14:53;15.07;;;10.50;;
56122;SDS011;42426;46.104;19.656;2022-10-16T01:25:29;16.20;;;11.52;;
56122;SDS011;42426;46.104;19.656;2022-10-16T01:28:15;17.10;;;11.35;;
56122;SDS011;42426;46.104;19.656;2022-10-16T01:30:45;17.38;;;12.68;;
56122;SDS011;42426;46.104;19.656;2022-10-16T01:33:17;15.48;;;12.50;;
56122;SDS011;42426;46.104;19.656;2022-10-16T01:35:55;18.00;;;11.93;;
56122;SDS011;42426;46.104;19.656;2022-10-16T01:40:55;19.42;;;12.00;;
56122;SDS011;42426;46.104;19.656;2022-10-16T01:43:36;15.35;;;11.52;;
56122;SDS011;42426;46.104;19.656;2022-10-16T01:46:27;13.85;;;11.55;;
56122;SDS011;42426;46.104;19.656;2022-10-16T01:48:53;19.95;;;11.70;;
56122;SDS011;42426;46.104;19.656;2022-10-16T01:51:20;19.98;;;12.32;;
56122;SDS011;42426;46.104;19.656;2022-10-16T01:53:49;12.95;;;10.30;;
56122;SDS011;42426;46.104;19.656;2022-10-16T01:56:19;15.77;;;10.35;;
56122;SDS011;42426;46.104;19.656;2022-10-16T01:58:52;15.98;;;12.25;;
56122;SDS011;42426;46.104;19.656;2022-10-16T02:01:22;15.48;;;11.07;;
56122;SDS011;42426;46.104;19.656;2022-10-16T02:03:53;15.05;;;11.02;;
56122;SDS011;42426;46.104;19.656;2022-10-16T02:06:22;16.52;;;10.68;;
56122;SDS011;42426;46.104;19.656;2022-10-16T02:08:48;12.85;;;10.27;;
56122;SDS011;42426;46.104;19.656;2022-10-16T02:11:14;14.75;;;11.18;;
56122;SDS011;42426;46.104;19.656;2022-10-16T02:13:55;18.45;;;11.30;;
56122;SDS011;42426;46.104;19.656;2022-10-16T02:16:38;18.52;;;12.05;;
56122;SDS011;42426;46.104;19.656;2022-10-16T02:19:06;16.77;;;10.75;;
56122;SDS011;42426;46.104;19.656;2022-10-16T02:24:38;16.27;;;11.35;;
56122;SDS011;42426;46.104;19.656;2022-10-16T02:30:01;17.10;;;11.35;;
56122;SDS011;42426;46.104;19.656;2022-10-16T02:32:33;14.73;;;10.93;;
56122;SDS011;42426;46.104;19.656;2022-10-16T02:35:00;18.75;;;10.57;;
56122;SDS011;42426;46.104;19.656;2022-10-16T02:37:27;14.60;;;11.02;;
56122;SDS011;42426;46.104;19.656;2022-10-16T02:39:54;13.32;;;11.00;;
56122;SDS011;42426;46.104;19.656;2022-10-16T02:42:27;12.95;;;10.65;;
56122;SDS011;42426;46.104;19.656;2022-10-16T02:45:03;15.18;;;10.35;;
56122;SDS011;42426;46.104;19.656;2022-10-16T02:47:30;16.75;;;10.55;;
56122;SDS011;42426;46.104;19.656;2022-10-16T02:49:55;15.75;;;10.90;;
56122;SDS011;42426;46.104;19.656;2022-10-16T02:52:21;14.98;;;10.23;;
56122;SDS011;42426;46.104;19.656;2022-10-16T02:54:47;13.50;;;9.10;;
56122;SDS011;42426;46.104;19.656;2022-10-16T02:57:13;13.18;;;10.00;;
56122;SDS011;42426;46.104;19.656;2022-10-16T02:59:40;15.05;;;10.32;;
56122;SDS011;42426;46.104;19.656;2022-10-16T03:02:06;12.57;;;9.85;;
56122;SDS011;42426;46.104;19.656;2022-10-16T03:04:31;13.57;;;9.63;;
56122;SDS011;42426;46.104;19.656;2022-10-16T03:06:57;16.55;;;10.07;;
56122;SDS011;42426;46.104;19.656;2022-10-16T03:09:23;17.73;;;10.30;;
56122;SDS011;42426;46.104;19.656;2022-10-16T03:11:49;13.13;;;9.43;;
56122;SDS011;42426;46.104;19.656;2022-10-16T03:14:15;13.77;;;10.27;;
56122;SDS011;42426;46.104;19.656;2022-10-16T03:16:40;13.30;;;10.02;;
56122;SDS011;42426;46.104;19.656;2022-10-16T03:19:06;12.60;;;9.88;;
56122;SDS011;42426;46.104;19.656;2022-10-16T03:21:32;39.03;;;12.13;;
56122;SDS011;42426;46.104;19.656;2022-10-16T03:23:58;16.75;;;9.90;;
56122;SDS011;42426;46.104;19.656;2022-10-16T03:26:24;18.58;;;10.63;;
56122;SDS011;42426;46.104;19.656;2022-10-16T03:28:52;20.02;;;11.52;;
56122;SDS011;42426;46.104;19.656;2022-10-16T03:31:20;13.48;;;10.18;;
56122;SDS011;42426;46.104;19.656;2022-10-16T03:33:49;17.02;;;10.10;;
56122;SDS011;42426;46.104;19.656;2022-10-16T03:36:15;14.98;;;9.98;;
56122;SDS011;42426;46.104;19.656;2022-10-16T03:38:40;17.55;;;10.57;;
56122;SDS011;42426;46.104;19.656;2022-10-16T03:41:07;14.57;;;10.48;;
56122;SDS011;42426;46.104;19.656;2022-10-16T03:43:33;16.73;;;11.50;;
56122;SDS011;42426;46.104;19.656;2022-10-16T03:45:59;14.63;;;10.68;;
56122;SDS011;42426;46.104;19.656;2022-10-16T03:48:26;14.77;;;10.70;;
56122;SDS011;42426;46.104;19.656;2022-10-16T03:50:51;17.30;;;10.90;;
56122;SDS011;42426;46.104;19.656;2022-10-16T03:53:17;14.27;;;10.73;;
56122;SDS011;42426;46.104;19.656;2022-10-16T03:55:43;14.48;;;10.30;;
56122;SDS011;42426;46.104;19.656;2022-10-16T03:58:10;16.00;;;11.30;;
56122;SDS011;42426;46.104;19.656;2022-10-16T04:00:39;13.43;;;9.95;;
56122;SDS011;42426;46.104;19.656;2022-10-16T04:03:06;18.10;;;11.65;;
56122;SDS011;42426;46.104;19.656;2022-10-16T04:05:32;18.20;;;11.30;;
56122;SDS011;42426;46.104;19.656;2022-10-16T04:07:59;13.20;;;10.43;;
56122;SDS011;42426;46.104;19.656;2022-10-16T04:10:25;17.30;;;10.38;;
56122;SDS011;42426;46.104;19.656;2022-10-16T04:12:51;13.88;;;10.13;;
56122;SDS011;42426;46.104;19.656;2022-10-16T04:15:19;14.27;;;9.73;;
56122;SDS011;42426;46.104;19.656;2022-10-16T04:17:45;17.17;;;10.90;;
56122;SDS011;42426;46.104;19.656;2022-10-16T04:20:11;15.30;;;10.02;;
56122;SDS011;42426;46.104;19.656;2022-10-16T04:22:37;13.77;;;10.13;;
56122;SDS011;42426;46.104;19.656;2022-10-16T04:25:04;14.45;;;10.10;;
56122;SDS011;42426;46.104;19.656;2022-10-16T04:27:30;12.98;;;9.27;;
56122;SDS011;42426;46.104;19.656;2022-10-16T04:29:56;13.43;;;10.50;;
56122;SDS011;42426;46.104;19.656;2022-10-16T04:32:24;18.58;;;9.98;;
56122;SDS011;42426;46.104;19.656;2022-10-16T04:34:50;17.55;;;9.80;;
56122;SDS011;42426;46.104;19.656;2022-10-16T04:37:16;12.95;;;9.57;;
56122;SDS011;42426;46.104;19.656;2022-10-16T04:39:42;14.10;;;10.20;;
56122;SDS011;42426;46.104;19.656;2022-10-16T04:42:08;14.88;;;9.13;;
56122;SDS011;42426;46.104;19.656;2022-10-16T04:44:34;15.45;;;10.00;;
56122;SDS011;42426;46.104;19.656;2022-10-16T04:47:01;13.27;;;9.25;;
56122;SDS011;42426;46.104;19.656;2022-10-16T04:49:27;16.02;;;9.88;;
56122;SDS011;42426;46.104;19.656;2022-10-16T04:51:52;13.52;;;9.13;;
56122;SDS011;42426;46.104;19.656;2022-10-16T04:54:18;16.23;;;9.52;;
56122;SDS011;42426;46.104;19.656;2022-10-16T04:56:44;13.10;;;9.68;;
56122;SDS011;42426;46.104;19.656;2022-10-16T04:59:16;14.85;;;10.30;;
56122;SDS011;42426;46.104;19.656;2022-10-16T05:01:43;13.38;;;9.95;;
56122;SDS011;42426;46.104;19.656;2022-10-16T05:04:10;13.85;;;11.15;;
56122;SDS011;42426;46.104;19.656;2022-10-16T05:06:36;14.98;;;10.18;;
56122;SDS011;42426;46.104;19.656;2022-10-16T05:09:04;16.33;;;9.95;;
56122;SDS011;42426;46.104;19.656;2022-10-16T05:11:30;14.65;;;9.98;;
56122;SDS011;42426;46.104;19.656;2022-10-16T05:13:57;16.15;;;9.77;;
56122;SDS011;42426;46.104;19.656;2022-10-16T05:16:22;15.75;;;10.98;;
56122;SDS011;42426;46.104;19.656;2022-10-16T05:18:48;12.80;;;10.40;;
56122;SDS011;42426;46.104;19.656;2022-10-16T05:21:14;15.98;;;11.07;;
56122;SDS011;42426;46.104;19.656;2022-10-16T05:23:40;13.60;;;9.98;;
56122;SDS011;42426;46.104;19.656;2022-10-16T05:26:05;17.25;;;10.00;;
56122;SDS011;42426;46.104;19.656;2022-10-16T05:28:33;17.02;;;10.30;;
56122;SDS011;42426;46.104;19.656;2022-10-16T05:30:59;16.02;;;10.18;;
56122;SDS011;42426;46.104;19.656;2022-10-16T05:33:32;19.58;;;10.52;;
56122;SDS011;42426;46.104;19.656;2022-10-16T05:36:06;13.18;;;10.55;;
56122;SDS011;42426;46.104;19.656;2022-10-16T05:38:32;14.35;;;10.93;;
56122;SDS011;42426;46.104;19.656;2022-10-16T05:40:59;14.77;;;10.07;;
56122;SDS011;42426;46.104;19.656;2022-10-16T05:43:26;14.13;;;10.90;;
56122;SDS011;42426;46.104;19.656;2022-10-16T05:46:00;16.17;;;10.60;;
56122;SDS011;42426;46.104;19.656;2022-10-16T05:48:27;16.75;;;10.82;;
56122;SDS011;42426;46.104;19.656;2022-10-16T05:51:00;16.65;;;11.75;;
56122;SDS011;42426;46.104;19.656;2022-10-16T05:53:27;18.58;;;11.60;;
56122;SDS011;42426;46.104;19.656;2022-10-16T05:55:55;23.88;;;11.68;;
56122;SDS011;42426;46.104;19.656;2022-10-16T05:58:21;12.95;;;9.85;;
56122;SDS011;42426;46.104;19.656;2022-10-16T06:00:55;18.88;;;12.02;;
56122;SDS011;42426;46.104;19.656;2022-10-16T06:03:21;15.43;;;10.98;;
56122;SDS011;42426;46.104;19.656;2022-10-16T06:05:47;18.40;;;11.93;;
56122;SDS011;42426;46.104;19.656;2022-10-16T06:08:13;16.80;;;11.40;;
56122;SDS011;42426;46.104;19.656;2022-10-16T06:10:39;19.75;;;11.30;;
56122;SDS011;42426;46.104;19.656;2022-10-16T06:13:05;19.80;;;11.85;;
56122;SDS011;42426;46.104;19.656;2022-10-16T06:15:31;13.95;;;11.18;;
56122;SDS011;42426;46.104;19.656;2022-10-16T06:17:57;17.20;;;12.07;;
56122;SDS011;42426;46.104;19.656;2022-10-16T06:20:23;16.25;;;11.25;;
56122;SDS011;42426;46.104;19.656;2022-10-16T06:22:50;21.58;;;11.85;;
56122;SDS011;42426;46.104;19.656;2022-10-16T06:25:16;15.30;;;10.88;;
56122;SDS011;42426;46.104;19.656;2022-10-16T06:27:43;15.70;;;11.45;;
56122;SDS011;42426;46.104;19.656;2022-10-16T06:30:09;21.15;;;12.30;;
56122;SDS011;42426;46.104;19.656;2022-10-16T06:32:35;16.52;;;11.48;;
56122;SDS011;42426;46.104;19.656;2022-10-16T06:35:01;16.27;;;12.25;;
56122;SDS011;42426;46.104;19.656;2022-10-16T06:37:28;17.67;;;12.57;;
56122;SDS011;42426;46.104;19.656;2022-10-16T06:39:54;19.42;;;12.68;;
56122;SDS011;42426;46.104;19.656;2022-10-16T06:42:21;18.27;;;11.90;;
56122;SDS011;42426;46.104;19.656;2022-10-16T06:44:47;22.27;;;12.48;;
56122;SDS011;42426;46.104;19.656;2022-10-16T06:47:13;17.30;;;11.68;;
56122;SDS011;42426;46.104;19.656;2022-10-16T06:49:39;19.38;;;11.05;;
56122;SDS011;42426;46.104;19.656;2022-10-16T06:52:06;15.82;;;11.70;;
56122;SDS011;42426;46.104;19.656;2022-10-16T06:54:32;17.70;;;11.27;;
56122;SDS011;42426;46.104;19.656;2022-10-16T06:56:58;12.88;;;11.05;;
56122;SDS011;42426;46.104;19.656;2022-10-16T06:59:26;16.38;;;11.07;;
56122;SDS011;42426;46.104;19.656;2022-10-16T07:01:52;16.65;;;11.80;;
56122;SDS011;42426;46.104;19.656;2022-10-16T07:04:17;15.60;;;11.73;;
56122;SDS011;42426;46.104;19.656;2022-10-16T07:06:45;13.00;;;10.25;;
56122;SDS011;42426;46.104;19.656;2022-10-16T07:09:11;24.48;;;12.20;;
56122;SDS011;42426;46.104;19.656;2022-10-16T07:11:37;19.33;;;11.65;;
56122;SDS011;42426;46.104;19.656;2022-10-16T07:14:09;14.20;;;10.70;;
56122;SDS011;42426;46.104;19.656;2022-10-16T07:16:42;18.58;;;11.93;;
56122;SDS011;42426;46.104;19.656;2022-10-16T07:19:08;14.15;;;11.02;;
56122;SDS011;42426;46.104;19.656;2022-10-16T07:21:37;13.27;;;10.23;;
56122;SDS011;42426;46.104;19.656;2022-10-16T07:24:04;15.07;;;10.90;;
56122;SDS011;42426;46.104;19.656;2022-10-16T07:26:32;11.98;;;9.60;;
56122;SDS011;42426;46.104;19.656;2022-10-16T07:28:59;12.90;;;9.65;;
56122;SDS011;42426;46.104;19.656;2022-10-16T07:31:25;15.32;;;9.40;;
56122;SDS011;42426;46.104;19.656;2022-10-16T07:33:52;15.70;;;10.00;;
56122;SDS011;42426;46.104;19.656;2022-10-16T07:36:18;14.35;;;9.93;;
56122;SDS011;42426;46.104;19.656;2022-10-16T07:38:46;13.20;;;10.30;;
56122;SDS011;42426;46.104;19.656;2022-10-16T07:41:16;15.93;;;9.80;;
56122;SDS011;42426;46.104;19.656;2022-10-16T07:43:47;12.63;;;8.45;;
56122;SDS011;42426;46.104;19.656;2022-10-16T07:46:14;13.88;;;11.57;;
56122;SDS011;42426;46.104;19.656;2022-10-16T07:48:41;11.93;;;9.15;;
56122;SDS011;42426;46.104;19.656;2022-10-16T07:51:11;15.50;;;9.90;;
56122;SDS011;42426;46.104;19.656;2022-10-16T07:53:37;14.10;;;9.55;;
56122;SDS011;42426;46.104;19.656;2022-10-16T07:56:05;12.63;;;9.77;;
56122;SDS011;42426;46.104;19.656;2022-10-16T07:58:32;13.20;;;9.23;;
56122;SDS011;42426;46.104;19.656;2022-10-16T08:01:02;14.63;;;8.40;;
56122;SDS011;42426;46.104;19.656;2022-10-16T08:03:30;11.55;;;9.38;;
56122;SDS011;42426;46.104;19.656;2022-10-16T08:05:56;11.65;;;8.57;;
56122;SDS011;42426;46.104;19.656;2022-10-16T08:08:23;11.13;;;8.38;;
56122;SDS011;42426;46.104;19.656;2022-10-16T08:10:48;13.77;;;9.43;;
56122;SDS011;42426;46.104;19.656;2022-10-16T08:13:16;13.57;;;9.00;;
56122;SDS011;42426;46.104;19.656;2022-10-16T08:15:42;18.33;;;9.75;;
56122;SDS011;42426;46.104;19.656;2022-10-16T08:18:10;19.92;;;9.52;;
56122;SDS011;42426;46.104;19.656;2022-10-16T08:20:37;11.32;;;7.90;;
56122;SDS011;42426;46.104;19.656;2022-10-16T08:23:03;13.43;;;8.63;;
56122;SDS011;42426;46.104;19.656;2022-10-16T08:25:29;21.90;;;10.23;;
56122;SDS011;42426;46.104;19.656;2022-10-16T08:27:55;12.80;;;9.13;;
56122;SDS011;42426;46.104;19.656;2022-10-16T08:30:22;12.27;;;8.32;;
56122;SDS011;42426;46.104;19.656;2022-10-16T08:32:49;12.57;;;8.48;;
56122;SDS011;42426;46.104;19.656;2022-10-16T08:35:15;22.17;;;9.00;;
56122;SDS011;42426;46.104;19.656;2022-10-16T08:37:41;13.18;;;8.73;;
56122;SDS011;42426;46.104;19.656;2022-10-16T08:40:15;12.68;;;8.45;;
56122;SDS011;42426;46.104;19.656;2022-10-16T08:45:25;10.27;;;7.65;;
56122;SDS011;42426;46.104;19.656;2022-10-16T08:48:16;14.77;;;8.25;;
56122;SDS011;42426;46.104;19.656;2022-10-16T08:50:42;11.27;;;8.02;;
56122;SDS011;42426;46.104;19.656;2022-10-16T08:53:13;14.57;;;9.02;;
56122;SDS011;42426;46.104;19.656;2022-10-16T08:56:00;14.98;;;8.35;;
56122;SDS011;42426;46.104;19.656;2022-10-16T08:58:27;14.35;;;7.88;;
56122;SDS011;42426;46.104;19.656;2022-10-16T09:00:55;15.95;;;8.73;;
56122;SDS011;42426;46.104;19.656;2022-10-16T09:14:50;12.55;;;9.50;;
56122;SDS011;42426;46.104;19.656;2022-10-16T09:17:37;12.80;;;9.07;;
56122;SDS011;42426;46.104;19.656;2022-10-16T09:23:15;13.98;;;8.55;;
56122;SDS011;42426;46.104;19.656;2022-10-16T09:25:43;12.45;;;8.07;;
56122;SDS011;42426;46.104;19.656;2022-10-16T09:28:12;15.57;;;8.90;;
56122;SDS011;42426;46.104;19.656;2022-10-16T09:30:38;10.88;;;7.95;;
56122;SDS011;42426;46.104;19.656;2022-10-16T09:33:04;14.90;;;7.75;;
56122;SDS011;42426;46.104;19.656;2022-10-16T09:35:33;13.40;;;7.25;;
56122;SDS011;42426;46.104;19.656;2022-10-16T09:38:03;15.07;;;7.90;;
56122;SDS011;42426;46.104;19.656;2022-10-16T09:40:33;12.00;;;8.55;;
56122;SDS011;42426;46.104;19.656;2022-10-16T09:43:12;11.90;;;8.25;;
56122;SDS011;42426;46.104;19.656;2022-10-16T09:45:43;15.93;;;9.20;;
56122;SDS011;42426;46.104;19.656;2022-10-16T09:48:31;11.75;;;8.40;;
56122;SDS011;42426;46.104;19.656;2022-10-16T09:51:02;9.68;;;7.97;;
56122;SDS011;42426;46.104;19.656;2022-10-16T09:53:40;12.13;;;7.70;;
56122;SDS011;42426;46.104;19.656;2022-10-16T09:56:11;12.57;;;7.75;;
56122;SDS011;42426;46.104;19.656;2022-10-16T09:58:49;14.20;;;8.07;;
56122;SDS011;42426;46.104;19.656;2022-10-16T10:01:16;12.10;;;7.50;;
56122;SDS011;42426;46.104;19.656;2022-10-16T10:03:43;11.13;;;8.32;;
56122;SDS011;42426;46.104;19.656;2022-10-16T10:08:54;10.30;;;7.22;;
56122;SDS011;42426;46.104;19.656;2022-10-16T10:20:21;9.32;;;6.80;;
56122;SDS011;42426;46.104;19.656;2022-10-16T10:22:41;12.52;;;7.40;;
56122;SDS011;42426;46.104;19.656;2022-10-16T10:30:22;11.75;;;7.30;;
56122;SDS011;42426;46.104;19.656;2022-10-16T10:38:49;11.13;;;7.40;;
56122;SDS011;42426;46.104;19.656;2022-10-16T10:46:21;11.32;;;8.68;;
56122;SDS011;42426;46.104;19.656;2022-10-16T10:49:16;11.45;;;7.55;;
56122;SDS011;42426;46.104;19.656;2022-10-16T10:54:45;14.00;;;7.45;;
56122;SDS011;42426;46.104;19.656;2022-10-16T10:57:21;10.02;;;7.28;;
56122;SDS011;42426;46.104;19.656;2022-10-16T11:07:44;13.50;;;7.80;;
56122;SDS011;42426;46.104;19.656;2022-10-16T11:10:28;12.85;;;8.55;;
56122;SDS011;42426;46.104;19.656;2022-10-16T11:12:56;9.93;;;7.03;;
56122;SDS011;42426;46.104;19.656;2022-10-16T11:20:37;14.38;;;8.57;;
56122;SDS011;42426;46.104;19.656;2022-10-16T11:23:22;12.05;;;7.30;;
56122;SDS011;42426;46.104;19.656;2022-10-16T11:26:02;9.30;;;7.57;;
56122;SDS011;42426;46.104;19.656;2022-10-16T11:28:36;10.32;;;7.60;;
56122;SDS011;42426;46.104;19.656;2022-10-16T11:34:29;13.18;;;8.23;;
56122;SDS011;42426;46.104;19.656;2022-10-16T11:37:19;12.85;;;8.73;;
56122;SDS011;42426;46.104;19.656;2022-10-16T11:39:54;10.45;;;8.35;;
56122;SDS011;42426;46.104;19.656;2022-10-16T11:42:33;11.55;;;8.82;;
56122;SDS011;42426;46.104;19.656;2022-10-16T11:45:24;11.05;;;8.07;;
56122;SDS011;42426;46.104;19.656;2022-10-16T11:47:54;12.50;;;7.65;;
56122;SDS011;42426;46.104;19.656;2022-10-16T11:53:16;10.15;;;8.35;;
56122;SDS011;42426;46.104;19.656;2022-10-16T11:56:06;9.77;;;8.18;;
56122;SDS011;42426;46.104;19.656;2022-10-16T11:58:34;13.13;;;8.38;;
56122;SDS011;42426;46.104;19.656;2022-10-16T12:09:30;11.27;;;7.70;;
56122;SDS011;42426;46.104;19.656;2022-10-16T12:11:58;16.30;;;8.82;;
56122;SDS011;42426;46.104;19.656;2022-10-16T12:17:03;9.45;;;6.90;;
56122;SDS011;42426;46.104;19.656;2022-10-16T12:20:00;11.88;;;7.07;;
56122;SDS011;42426;46.104;19.656;2022-10-16T12:23:06;8.55;;;6.43;;
56122;SDS011;42426;46.104;19.656;2022-10-16T12:25:44;13.18;;;6.18;;
56122;SDS011;42426;46.104;19.656;2022-10-16T12:28:21;9.55;;;6.25;;
56122;SDS011;42426;46.104;19.656;2022-10-16T12:31:09;8.63;;;6.78;;
56122;SDS011;42426;46.104;19.656;2022-10-16T12:33:40;11.57;;;6.38;;
56122;SDS011;42426;46.104;19.656;2022-10-16T12:36:16;10.57;;;6.65;;
56122;SDS011;42426;46.104;19.656;2022-10-16T12:38:54;10.00;;;6.40;;
56122;SDS011;42426;46.104;19.656;2022-10-16T12:41:24;9.82;;;7.22;;
56122;SDS011;42426;46.104;19.656;2022-10-16T12:43:50;9.50;;;6.43;;
56122;SDS011;42426;46.104;19.656;2022-10-16T12:48:43;7.82;;;5.68;;
56122;SDS011;42426;46.104;19.656;2022-10-16T12:53:37;9.13;;;5.90;;
56122;SDS011;42426;46.104;19.656;2022-10-16T13:19:00;9.40;;;6.07;;
56122;SDS011;42426;46.104;19.656;2022-10-16T13:28:48;10.05;;;6.25;;
56122;SDS011;42426;46.104;19.656;2022-10-16T13:31:17;12.82;;;6.65;;
56122;SDS011;42426;46.104;19.656;2022-10-16T13:33:45;9.98;;;6.38;;
56122;SDS011;42426;46.104;19.656;2022-10-16T13:36:26;10.10;;;5.90;;
56122;SDS011;42426;46.104;19.656;2022-10-16T13:41:37;10.27;;;5.38;;
56122;SDS011;42426;46.104;19.656;2022-10-16T13:44:03;7.75;;;5.88;;
56122;SDS011;42426;46.104;19.656;2022-10-16T13:46:30;7.20;;;5.85;;
56122;SDS011;42426;46.104;19.656;2022-10-16T13:49:10;8.43;;;6.15;;
56122;SDS011;42426;46.104;19.656;2022-10-16T13:51:37;16.88;;;6.32;;
56122;SDS011;42426;46.104;19.656;2022-10-16T13:54:03;9.70;;;6.75;;
56122;SDS011;42426;46.104;19.656;2022-10-16T13:56:30;7.57;;;6.20;;
56122;SDS011;42426;46.104;19.656;2022-10-16T13:58:58;9.25;;;5.65;;
56122;SDS011;42426;46.104;19.656;2022-10-16T14:01:29;10.85;;;6.75;;
56122;SDS011;42426;46.104;19.656;2022-10-16T14:04:03;10.15;;;6.13;;
56122;SDS011;42426;46.104;19.656;2022-10-16T14:06:30;7.72;;;6.32;;
56122;SDS011;42426;46.104;19.656;2022-10-16T14:11:33;12.90;;;6.40;;
56122;SDS011;42426;46.104;19.656;2022-10-16T14:14:02;11.27;;;6.22;;
56122;SDS011;42426;46.104;19.656;2022-10-16T14:16:29;8.50;;;6.32;;
56122;SDS011;42426;46.104;19.656;2022-10-16T14:21:21;13.38;;;6.32;;
56122;SDS011;42426;46.104;19.656;2022-10-16T14:23:47;10.50;;;6.13;;
56122;SDS011;42426;46.104;19.656;2022-10-16T14:26:15;8.15;;;6.00;;
56122;SDS011;42426;46.104;19.656;2022-10-16T14:28:41;9.23;;;6.88;;
56122;SDS011;42426;46.104;19.656;2022-10-16T14:33:43;10.23;;;6.82;;
56122;SDS011;42426;46.104;19.656;2022-10-16T14:38:35;10.95;;;6.38;;
56122;SDS011;42426;46.104;19.656;2022-10-16T14:41:02;9.15;;;6.55;;
56122;SDS011;42426;46.104;19.656;2022-10-16T14:43:31;9.23;;;5.90;;
56122;SDS011;42426;46.104;19.656;2022-10-16T14:45:58;6.72;;;5.88;;
56122;SDS011;42426;46.104;19.656;2022-10-16T14:48:25;9.63;;;6.32;;
56122;SDS011;42426;46.104;19.656;2022-10-16T14:50:51;9.40;;;6.38;;
56122;SDS011;42426;46.104;19.656;2022-10-16T14:53:17;8.00;;;6.28;;
56122;SDS011;42426;46.104;19.656;2022-10-16T14:55:43;8.20;;;6.43;;
56122;SDS011;42426;46.104;19.656;2022-10-16T14:58:20;8.88;;;6.63;;
56122;SDS011;42426;46.104;19.656;2022-10-16T15:00:47;6.95;;;5.63;;
56122;SDS011;42426;46.104;19.656;2022-10-16T15:03:13;7.80;;;5.97;;
56122;SDS011;42426;46.104;19.656;2022-10-16T15:05:39;7.70;;;6.13;;
56122;SDS011;42426;46.104;19.656;2022-10-16T15:08:06;11.05;;;6.70;;
56122;SDS011;42426;46.104;19.656;2022-10-16T15:10:33;8.40;;;6.15;;
56122;SDS011;42426;46.104;19.656;2022-10-16T15:13:01;10.98;;;6.18;;
56122;SDS011;42426;46.104;19.656;2022-10-16T15:17:56;9.15;;;7.32;;
56122;SDS011;42426;46.104;19.656;2022-10-16T15:20:35;9.73;;;6.57;;
56122;SDS011;42426;46.104;19.656;2022-10-16T15:23:03;12.48;;;7.40;;
56122;SDS011;42426;46.104;19.656;2022-10-16T15:25:33;9.88;;;6.53;;
56122;SDS011;42426;46.104;19.656;2022-10-16T15:28:00;10.45;;;7.03;;
56122;SDS011;42426;46.104;19.656;2022-10-16T15:30:27;13.02;;;7.55;;
56122;SDS011;42426;46.104;19.656;2022-10-16T15:32:53;8.65;;;6.72;;
56122;SDS011;42426;46.104;19.656;2022-10-16T15:35:19;12.43;;;7.05;;
56122;SDS011;42426;46.104;19.656;2022-10-16T15:37:46;8.35;;;6.22;;
56122;SDS011;42426;46.104;19.656;2022-10-16T15:40:13;14.27;;;7.88;;
56122;SDS011;42426;46.104;19.656;2022-10-16T15:42:39;12.63;;;7.25;;
56122;SDS011;42426;46.104;19.656;2022-10-16T15:45:05;11.45;;;7.15;;
56122;SDS011;42426;46.104;19.656;2022-10-16T15:47:31;22.88;;;8.88;;
56122;SDS011;42426;46.104;19.656;2022-10-16T15:49:57;10.32;;;7.53;;
56122;SDS011;42426;46.104;19.656;2022-10-16T15:52:23;9.90;;;7.18;;
56122;SDS011;42426;46.104;19.656;2022-10-16T15:54:49;10.32;;;8.00;;
56122;SDS011;42426;46.104;19.656;2022-10-16T15:57:15;12.55;;;7.95;;
56122;SDS011;42426;46.104;19.656;2022-10-16T15:59:41;12.10;;;8.05;;
56122;SDS011;42426;46.104;19.656;2022-10-16T16:02:07;10.18;;;8.75;;
56122;SDS011;42426;46.104;19.656;2022-10-16T16:04:34;14.48;;;7.55;;
56122;SDS011;42426;46.104;19.656;2022-10-16T16:07:00;13.65;;;8.27;;
56122;SDS011;42426;46.104;19.656;2022-10-16T16:09:26;13.95;;;8.82;;
56122;SDS011;42426;46.104;19.656;2022-10-16T16:11:54;16.08;;;8.65;;
56122;SDS011;42426;46.104;19.656;2022-10-16T16:14:20;21.92;;;8.57;;
56122;SDS011;42426;46.104;19.656;2022-10-16T16:16:46;16.98;;;8.77;;
56122;SDS011;42426;46.104;19.656;2022-10-16T16:19:12;25.63;;;10.13;;
56122;SDS011;42426;46.104;19.656;2022-10-16T16:21:38;34.92;;;11.85;;
56122;SDS011;42426;46.104;19.656;2022-10-16T16:24:04;20.38;;;9.82;;
56122;SDS011;42426;46.104;19.656;2022-10-16T16:26:33;22.95;;;9.73;;
56122;SDS011;42426;46.104;19.656;2022-10-16T16:29:02;20.45;;;10.88;;
56122;SDS011;42426;46.104;19.656;2022-10-16T16:31:29;15.93;;;10.80;;
56122;SDS011;42426;46.104;19.656;2022-10-16T16:33:56;19.92;;;11.02;;
56122;SDS011;42426;46.104;19.656;2022-10-16T16:36:23;23.80;;;10.55;;
56122;SDS011;42426;46.104;19.656;2022-10-16T16:38:50;24.08;;;11.15;;
56122;SDS011;42426;46.104;19.656;2022-10-16T16:41:18;18.55;;;11.93;;
56122;SDS011;42426;46.104;19.656;2022-10-16T16:43:46;15.80;;;11.77;;
56122;SDS011;42426;46.104;19.656;2022-10-16T16:46:18;22.15;;;11.88;;
56122;SDS011;42426;46.104;19.656;2022-10-16T16:48:44;22.27;;;12.70;;
56122;SDS011;42426;46.104;19.656;2022-10-16T16:51:12;21.63;;;12.95;;
56122;SDS011;42426;46.104;19.656;2022-10-16T16:53:45;28.45;;;15.48;;
56122;SDS011;42426;46.104;19.656;2022-10-16T16:56:13;27.33;;;17.00;;
56122;SDS011;42426;46.104;19.656;2022-10-16T16:58:39;27.67;;;18.15;;
56122;SDS011;42426;46.104;19.656;2022-10-16T17:01:10;27.13;;;17.08;;
56122;SDS011;42426;46.104;19.656;2022-10-16T17:03:36;33.58;;;20.08;;